Time;durP1;ratioP1;P1;durP2;ratioP2;P2;SDS_P1;SDS_P2;PMS_P1;PMS_P2;Temp;Humidity;BMP_temperature;BMP_pressure;BME280_temperature;BME280_humidity;BME280_pressure;Samples;Min_cycle;Max_cycle;Signal;HPM_P1;HPM_P2
2022/06/24 00:00:07;;;;;;;7.28;6.80;;;22.30;97.60;;;;;;5030217;28;20209;-84
2022/06/24 00:02:33;;;;;;;7.13;6.63;;;22.40;96.90;;;;;;5030080;28;20222;-84
2022/06/24 00:05:02;;;;;;;6.55;6.13;;;22.40;95.50;;;;;;5031149;28;20679;-84
2022/06/24 00:07:28;;;;;;;6.38;5.97;;;22.40;95.60;;;;;;5029926;28;20773;-84
2022/06/24 00:09:54;;;;;;;6.70;5.70;;;22.20;94.80;;;;;;5036600;28;20226;-84
2022/06/24 00:12:24;;;;;;;6.28;5.78;;;22.30;95.20;;;;;;5032961;28;20177;-84
2022/06/24 00:14:59;;;;;;;6.07;5.57;;;22.20;95.30;;;;;;5044746;28;20259;-84
2022/06/24 00:17:32;;;;;;;5.82;5.43;;;22.20;95.50;;;;;;5031261;28;20184;-85
2022/06/24 00:20:06;;;;;;;5.45;4.95;;;22.20;97.00;;;;;;5028375;28;20271;-84
2022/06/24 00:22:44;;;;;;;6.03;5.50;;;22.20;96.30;;;;;;5035230;28;20253;-84
2022/06/24 00:25:22;;;;;;;6.03;5.55;;;22.30;95.40;;;;;;5029544;28;20204;-84
2022/06/24 00:28:08;;;;;;;7.03;6.53;;;22.20;95.60;;;;;;5029299;28;20203;-84
2022/06/24 00:30:43;;;;;;;5.68;5.25;;;22.30;94.90;;;;;;5027283;28;20182;-84
2022/06/24 00:33:10;;;;;;;5.65;5.15;;;22.50;94.20;;;;;;5030385;28;20177;-84
2022/06/24 00:35:58;;;;;;;6.15;5.70;;;22.40;94.50;;;;;;5034085;28;20177;-84
2022/06/24 00:38:29;;;;;;;5.45;5.05;;;22.40;95.80;;;;;;5032619;28;20209;-85
2022/06/24 00:40:56;;;;;;;6.00;5.47;;;22.50;95.40;;;;;;5033502;28;20188;-84
2022/06/24 00:43:27;;;;;;;6.38;5.75;;;22.50;96.10;;;;;;5033629;28;20188;-85
2022/06/24 00:45:58;;;;;;;5.78;5.30;;;22.50;96.30;;;;;;5027593;28;20232;-85
2022/06/24 00:48:28;;;;;;;5.70;5.40;;;22.40;97.20;;;;;;5028103;28;20241;-85
2022/06/24 00:50:53;;;;;;;6.03;5.47;;;22.40;97.10;;;;;;5033468;28;20785;-85
2022/06/24 00:53:19;;;;;;;6.45;5.95;;;22.40;98.40;;;;;;5033961;28;20227;-85
2022/06/24 00:55:46;;;;;;;6.35;5.85;;;22.50;97.50;;;;;;5029257;28;20185;-85
2022/06/24 00:58:17;;;;;;;6.53;6.03;;;22.40;97.10;;;;;;5030074;28;20188;-85
2022/06/24 01:00:45;;;;;;;6.97;5.97;;;22.40;96.10;;;;;;5028718;28;20193;-85
2022/06/24 01:03:14;;;;;;;6.28;5.72;;;22.40;97.00;;;;;;5029854;28;20216;-85
2022/06/24 01:05:40;;;;;;;5.30;5.00;;;22.40;97.60;;;;;;5033431;28;20234;-85
2022/06/24 01:08:08;;;;;;;6.15;5.65;;;22.30;98.10;;;;;;5029328;28;20668;-85
2022/06/24 01:10:35;;;;;;;5.90;5.60;;;22.30;98.60;;;;;;5042631;28;20188;-85
2022/06/24 01:13:01;;;;;;;6.10;5.60;;;22.40;97.70;;;;;;5030504;28;20200;-85
2022/06/24 01:15:26;;;;;;;6.40;5.93;;;22.40;97.20;;;;;;5029664;28;20185;-84
2022/06/24 01:17:52;;;;;;;6.15;5.78;;;22.40;96.80;;;;;;5027550;28;20234;-84
2022/06/24 01:20:18;;;;;;;6.30;5.80;;;22.40;95.60;;;;;;5034056;28;20256;-84
2022/06/24 01:22:44;;;;;;;5.65;5.28;;;22.40;98.70;;;;;;5029455;28;20181;-84
2022/06/24 01:25:11;;;;;;;5.78;5.28;;;22.30;97.80;;;;;;5027314;28;20193;-84
2022/06/24 01:27:38;;;;;;;5.85;5.45;;;22.30;97.50;;;;;;5028832;28;20185;-84
2022/06/24 01:30:05;;;;;;;5.45;5.13;;;22.20;97.40;;;;;;5028912;28;20213;-84
2022/06/24 01:32:31;;;;;;;5.75;5.32;;;22.20;98.20;;;;;;5029602;28;20209;-84
2022/06/24 01:34:56;;;;;;;6.50;6.00;;;22.30;97.80;;;;;;5028335;28;20204;-84
2022/06/24 01:37:23;;;;;;;5.32;5.03;;;22.20;96.70;;;;;;5031703;28;20195;-84
2022/06/24 01:39:49;;;;;;;6.00;5.50;;;22.40;97.80;;;;;;5027825;28;20217;-84
2022/06/24 01:42:14;;;;;;;7.97;6.15;;;22.40;98.60;;;;;;5028629;28;20678;-84
2022/06/24 01:44:40;;;;;;;6.55;6.05;;;22.30;98.00;;;;;;5028405;28;20181;-84
2022/06/24 01:47:06;;;;;;;6.63;6.13;;;22.20;97.20;;;;;;5029648;28;20184;-84
2022/06/24 01:49:32;;;;;;;6.40;5.90;;;22.30;97.20;;;;;;5031969;28;20220;-84
2022/06/24 01:52:01;;;;;;;6.32;5.75;;;22.30;97.20;;;;;;5030680;28;20280;-84
2022/06/24 01:54:27;;;;;;;5.72;5.22;;;22.20;97.00;;;;;;5030287;28;20215;-84
2022/06/24 01:56:53;;;;;;;6.13;5.68;;;22.30;98.20;;;;;;5027032;28;20194;-84
2022/06/24 01:59:19;;;;;;;5.72;5.22;;;22.30;97.30;;;;;;5029039;28;20297;-84
2022/06/24 02:01:46;;;;;;;6.40;5.80;;;22.30;97.60;;;;;;5029240;28;20186;-84
2022/06/24 02:04:12;;;;;;;6.25;5.78;;;22.10;97.80;;;;;;5032064;28;20209;-84
2022/06/24 02:06:39;;;;;;;7.78;6.22;;;22.00;98.50;;;;;;5032640;28;20664;-84
2022/06/24 02:09:05;;;;;;;5.40;5.10;;;22.10;97.40;;;;;;5027073;28;20306;-84
2022/06/24 02:14:24;;;;;;;5.82;5.32;;;22.00;98.40;;;;;;5031422;28;20208;-84
2022/06/24 02:16:50;;;;;;;5.30;5.00;;;21.90;98.40;;;;;;5024719;28;20190;-84
2022/06/24 02:19:16;;;;;;;5.45;5.05;;;22.00;97.20;;;;;;5028017;28;20644;-84
2022/06/24 02:21:42;;;;;;;6.03;5.68;;;22.10;96.90;;;;;;5029723;28;20247;-85
2022/06/24 02:24:07;;;;;;;5.82;5.22;;;21.90;97.80;;;;;;5026748;28;20177;-84
2022/06/24 02:26:33;;;;;;;5.88;5.47;;;21.80;98.80;;;;;;5027966;28;20264;-84
2022/06/24 02:28:59;;;;;;;7.38;5.47;;;21.80;98.10;;;;;;5025425;28;20217;-84
2022/06/24 02:31:24;;;;;;;5.75;5.25;;;22.00;97.70;;;;;;5026368;28;20845;-84
2022/06/24 02:33:50;;;;;;;5.68;5.38;;;22.10;96.50;;;;;;5027812;28;20281;-84
2022/06/24 02:36:16;;;;;;;6.20;5.70;;;22.00;95.90;;;;;;5027646;28;20567;-84
2022/06/24 02:38:42;;;;;;;7.03;5.93;;;22.10;95.40;;;;;;5028260;28;20278;-83
2022/06/24 02:41:08;;;;;;;5.93;5.53;;;22.20;95.30;;;;;;5026996;28;20190;-84
2022/06/24 02:43:36;;;;;;;6.22;5.88;;;22.20;95.20;;;;;;5028254;28;20177;-84
2022/06/24 02:46:03;;;;;;;6.40;5.90;;;22.20;95.00;;;;;;5029492;28;20185;-84
2022/06/24 02:48:30;;;;;;;6.38;5.75;;;21.90;95.60;;;;;;5030277;28;20692;-84
2022/06/24 02:50:58;;;;;;;6.00;5.40;;;21.80;96.20;;;;;;5027710;28;20209;-84
2022/06/24 02:53:25;;;;;;;6.55;5.90;;;21.70;96.90;;;;;;5029283;28;20181;-84
2022/06/24 02:55:52;;;;;;;6.35;5.75;;;21.50;98.00;;;;;;5024778;28;20181;-84
2022/06/24 02:58:19;;;;;;;5.45;4.95;;;21.50;98.20;;;;;;5028220;28;20195;-84
2022/06/24 03:00:45;;;;;;;6.07;5.55;;;21.30;98.20;;;;;;5028087;28;20644;-84
2022/06/24 03:03:16;;;;;;;6.47;5.68;;;21.20;98.70;;;;;;5029809;28;20619;-83
2022/06/24 03:05:42;;;;;;;6.47;5.72;;;21.10;98.80;;;;;;5028521;28;20192;-84
2022/06/24 03:08:09;;;;;;;6.38;5.97;;;21.10;99.40;;;;;;5026635;28;20685;-84
2022/06/24 03:10:35;;;;;;;7.57;7.07;;;20.90;99.80;;;;;;5033586;28;20216;-84
2022/06/24 03:13:01;;;;;;;6.75;6.25;;;20.80;99.90;;;;;;5028475;28;20193;-84
2022/06/24 03:15:27;;;;;;;6.50;6.00;;;20.80;99.90;;;;;;5030101;28;20184;-84
2022/06/24 03:17:53;;;;;;;6.53;5.95;;;20.60;99.90;;;;;;5029369;28;20195;-84
2022/06/24 03:20:19;;;;;;;6.28;5.57;;;20.50;99.90;;;;;;5028016;28;20222;-84
2022/06/24 03:22:45;;;;;;;6.85;6.20;;;20.40;99.90;;;;;;5025609;28;20799;-84
2022/06/24 03:25:11;;;;;;;7.13;6.60;;;20.50;99.90;;;;;;5028036;28;20325;-84
2022/06/24 03:27:37;;;;;;;6.72;5.40;;;20.70;99.90;;;;;;5025810;28;20187;-84
2022/06/24 03:30:04;;;;;;;6.35;5.95;;;20.80;99.90;;;;;;5027441;28;20261;-84
2022/06/24 03:32:30;;;;;;;7.25;6.07;;;20.80;99.90;;;;;;5030997;28;20279;-84
2022/06/24 03:34:55;;;;;;;6.47;5.90;;;21.00;99.90;;;;;;5028180;28;20220;-84
2022/06/24 03:37:21;;;;;;;6.32;5.82;;;21.00;99.90;;;;;;5028732;28;20203;-84
2022/06/24 03:39:47;;;;;;;6.93;6.32;;;20.80;99.90;;;;;;5027459;28;20217;-84
2022/06/24 03:42:13;;;;;;;7.28;6.15;;;20.60;99.90;;;;;;5027167;28;20188;-84
2022/06/24 03:44:38;;;;;;;6.20;5.72;;;20.80;99.90;;;;;;5028595;28;20192;-84
2022/06/24 03:47:04;;;;;;;6.25;5.63;;;20.90;99.90;;;;;;5024264;28;20196;-84
2022/06/24 03:49:30;;;;;;;7.70;5.97;;;20.80;99.90;;;;;;5030121;28;20295;-84
2022/06/24 03:51:55;;;;;;;6.57;5.95;;;20.90;99.90;;;;;;5027944;28;20196;-84
2022/06/24 03:54:22;;;;;;;8.55;5.60;;;20.80;99.90;;;;;;5028776;28;20213;-84
2022/06/24 03:56:47;;;;;;;7.18;6.20;;;20.90;99.90;;;;;;5026300;28;20738;-84
2022/06/24 03:59:13;;;;;;;7.03;5.55;;;20.90;99.70;;;;;;5031487;28;20209;-84
2022/06/24 04:01:39;;;;;;;5.63;5.15;;;21.00;98.80;;;;;;5030160;28;20185;-84
2022/06/24 04:04:05;;;;;;;6.07;5.57;;;21.10;98.90;;;;;;5024746;28;20648;-84
2022/06/24 04:06:30;;;;;;;6.18;5.55;;;21.20;97.90;;;;;;5026872;28;20742;-84
2022/06/24 04:08:56;;;;;;;6.47;5.60;;;21.20;97.80;;;;;;5025615;28;20225;-84
2022/06/24 04:11:22;;;;;;;5.93;5.45;;;21.30;97.20;;;;;;5028115;28;20217;-84
2022/06/24 04:13:48;;;;;;;6.85;5.63;;;21.30;96.50;;;;;;5029931;28;20193;-84
2022/06/24 04:16:15;;;;;;;6.10;5.53;;;21.20;97.60;;;;;;5025325;28;20540;-84
2022/06/24 04:18:41;;;;;;;6.80;5.28;;;21.10;97.10;;;;;;5027662;28;20205;-84
2022/06/24 04:21:14;;;;;;;6.30;5.72;;;21.10;97.40;;;;;;5030866;28;20215;-84
2022/06/24 04:23:40;;;;;;;6.30;5.72;;;21.00;98.40;;;;;;5035964;28;20184;-84
2022/06/24 04:26:06;;;;;;;5.70;5.30;;;20.90;99.70;;;;;;5030961;28;20222;-84
2022/06/24 04:28:33;;;;;;;6.20;5.38;;;20.90;99.90;;;;;;5033513;28;20224;-84
2022/06/24 04:30:59;;;;;;;6.35;5.85;;;20.80;99.90;;;;;;5033121;28;20191;-84
2022/06/24 04:33:25;;;;;;;9.52;6.22;;;20.70;99.90;;;;;;5025078;28;20187;-84
2022/06/24 04:35:51;;;;;;;7.60;6.97;;;20.50;99.90;;;;;;5028020;28;20185;-83
2022/06/24 04:38:17;;;;;;;6.43;5.88;;;20.20;99.90;;;;;;5026845;28;20699;-83
2022/06/24 04:40:42;;;;;;;7.38;6.78;;;20.20;99.90;;;;;;5031471;28;20190;-83
2022/06/24 04:43:08;;;;;;;7.55;6.97;;;20.10;99.90;;;;;;5033223;28;20201;-84
2022/06/24 04:45:34;;;;;;;8.15;7.40;;;20.10;99.90;;;;;;5039563;28;20190;-84
2022/06/24 04:48:00;;;;;;;7.60;6.68;;;20.10;99.90;;;;;;5037701;28;20280;-84
2022/06/24 04:50:26;;;;;;;7.75;6.43;;;20.00;99.90;;;;;;5034917;28;20208;-83
2022/06/24 04:52:52;;;;;;;8.13;7.00;;;20.00;99.90;;;;;;5035942;28;20193;-84
2022/06/24 04:55:19;;;;;;;7.32;6.70;;;19.90;99.90;;;;;;5041705;28;20713;-83
2022/06/24 04:57:45;;;;;;;7.63;6.93;;;19.90;99.90;;;;;;5017496;28;20173;-84
2022/06/24 05:00:11;;;;;;;8.30;7.50;;;20.10;99.90;;;;;;5038207;28;20270;-84
2022/06/24 05:02:36;;;;;;;7.43;6.72;;;20.20;99.90;;;;;;5039976;28;20181;-84
2022/06/24 05:05:03;;;;;;;7.43;6.60;;;20.10;99.90;;;;;;5041714;28;20229;-85
2022/06/24 05:07:29;;;;;;;7.93;7.20;;;20.10;99.90;;;;;;5044930;28;20181;-84
2022/06/24 05:09:55;;;;;;;9.93;7.10;;;20.10;99.90;;;;;;5042763;28;20239;-84
2022/06/24 05:12:20;;;;;;;8.60;7.13;;;20.10;99.90;;;;;;5039494;28;20246;-84
2022/06/24 05:14:46;;;;;;;10.93;7.57;;;19.90;99.90;;;;;;5035189;28;20268;-84
2022/06/24 05:17:12;;;;;;;8.65;7.90;;;19.90;99.90;;;;;;5035139;28;20189;-84
2022/06/24 05:19:38;;;;;;;8.50;7.80;;;20.00;99.90;;;;;;5033217;28;20722;-84
2022/06/24 05:22:04;;;;;;;9.57;6.75;;;20.00;99.90;;;;;;5033572;28;20276;-83
2022/06/24 05:24:30;;;;;;;9.38;7.50;;;20.00;99.90;;;;;;5032011;28;20253;-84
2022/06/24 05:26:56;;;;;;;8.07;7.40;;;20.10;99.90;;;;;;5032193;28;20195;-85
2022/06/24 05:29:22;;;;;;;8.32;7.43;;;20.10;99.90;;;;;;5039443;28;20212;-85
2022/06/24 05:31:48;;;;;;;8.65;7.85;;;20.10;99.90;;;;;;5031443;28;20192;-85
2022/06/24 05:34:14;;;;;;;12.68;7.63;;;20.10;99.90;;;;;;5033244;28;20185;-85
2022/06/24 05:36:40;;;;;;;7.25;6.63;;;20.10;99.90;;;;;;5030552;28;20185;-85
2022/06/24 05:39:06;;;;;;;8.35;7.55;;;20.20;99.90;;;;;;5030798;28;20232;-85
2022/06/24 05:41:34;;;;;;;9.10;8.35;;;20.10;99.90;;;;;;5038410;28;20199;-84
2022/06/24 05:44:02;;;;;;;8.45;7.75;;;20.10;99.90;;;;;;5035324;28;20182;-85
2022/06/24 05:46:28;;;;;;;11.07;8.02;;;20.10;99.90;;;;;;5033499;28;20192;-85
2022/06/24 05:48:55;;;;;;;8.07;7.35;;;20.10;99.90;;;;;;5027191;28;20210;-85
2022/06/24 05:51:20;;;;;;;8.35;7.65;;;20.40;99.90;;;;;;5038928;28;20376;-85
2022/06/24 05:56:31;;;;;;;8.77;7.68;;;20.30;99.90;;;;;;5033229;28;20276;-85
2022/06/24 05:58:58;;;;;;;10.25;8.18;;;20.40;99.90;;;;;;5034022;28;20250;-85
2022/06/24 06:01:25;;;;;;;9.00;8.13;;;20.60;99.90;;;;;;5033691;28;20193;-85
2022/06/24 06:03:50;;;;;;;8.05;7.25;;;20.70;99.90;;;;;;5037067;28;20186;-85
2022/06/24 06:06:16;;;;;;;9.30;7.57;;;20.80;99.90;;;;;;5030915;28;20191;-85
2022/06/24 06:08:43;;;;;;;9.07;8.18;;;20.70;99.90;;;;;;5030293;28;20215;-85
2022/06/24 06:11:15;;;;;;;8.35;7.68;;;20.80;99.90;;;;;;5029834;28;20624;-85
2022/06/24 06:13:42;;;;;;;9.10;8.30;;;20.80;99.90;;;;;;5032631;28;20211;-85
2022/06/24 06:16:08;;;;;;;10.02;9.20;;;21.00;99.90;;;;;;5031841;28;20194;-85
2022/06/24 06:18:34;;;;;;;9.68;8.18;;;21.10;99.90;;;;;;5028059;28;20305;-85
2022/06/24 06:21:05;;;;;;;10.23;9.00;;;21.20;99.90;;;;;;5035272;28;20206;-85
2022/06/24 06:23:31;;;;;;;8.35;7.68;;;21.20;99.90;;;;;;5030248;28;20564;-85
2022/06/24 06:25:58;;;;;;;10.15;9.18;;;21.30;99.90;;;;;;5029470;28;20985;-85
2022/06/24 06:28:24;;;;;;;9.10;8.35;;;21.40;99.90;;;;;;5035144;28;20208;-85
2022/06/24 06:30:50;;;;;;;9.07;8.07;;;21.30;99.90;;;;;;5033463;28;20195;-85
2022/06/24 06:33:15;;;;;;;9.35;8.20;;;21.20;99.90;;;;;;5035235;28;20250;-85
2022/06/24 06:35:41;;;;;;;9.45;8.73;;;21.20;99.90;;;;;;5037478;28;20185;-85
2022/06/24 06:38:07;;;;;;;8.75;8.02;;;21.20;99.90;;;;;;5041167;28;20192;-85
2022/06/24 06:40:39;;;;;;;8.55;7.72;;;21.20;99.90;;;;;;5039727;28;20227;-85
2022/06/24 06:43:05;;;;;;;7.82;7.13;;;21.30;99.90;;;;;;5035602;28;20260;-86
2022/06/24 06:45:35;;;;;;;8.57;7.82;;;21.50;99.90;;;;;;5038626;28;20203;-85
2022/06/24 06:48:02;;;;;;;9.13;8.00;;;21.60;99.90;;;;;;5042223;28;20201;-85
2022/06/24 06:50:27;;;;;;;7.95;7.35;;;21.70;99.90;;;;;;5045922;28;20189;-85
2022/06/24 06:52:53;;;;;;;8.57;7.80;;;21.60;99.90;;;;;;5036175;28;20203;-85
2022/06/24 06:55:19;;;;;;;7.85;7.18;;;21.70;99.90;;;;;;5031945;28;20199;-86
2022/06/24 06:57:46;;;;;;;7.43;6.65;;;21.60;99.90;;;;;;5039279;28;20205;-85
2022/06/24 07:00:13;;;;;;;6.90;6.30;;;21.60;99.60;;;;;;5042806;28;20223;-84
2022/06/24 07:02:39;;;;;;;7.97;6.57;;;21.70;99.40;;;;;;5035343;28;20188;-85
2022/06/24 07:05:06;;;;;;;7.45;5.97;;;21.80;98.40;;;;;;5038816;28;20268;-85
2022/06/24 07:07:32;;;;;;;8.88;6.03;;;21.90;98.50;;;;;;5033150;28;20192;-85
2022/06/24 07:09:58;;;;;;;6.57;5.88;;;21.90;97.50;;;;;;5031652;28;20227;-85
2022/06/24 07:12:25;;;;;;;7.18;6.47;;;22.10;96.00;;;;;;5034382;28;20181;-85
2022/06/24 07:14:51;;;;;;;6.70;6.05;;;22.00;96.10;;;;;;5035237;28;20283;-85
2022/06/24 07:17:17;;;;;;;7.03;6.43;;;22.00;95.90;;;;;;5038446;28;20181;-86
2022/06/24 07:19:44;;;;;;;6.45;5.85;;;22.10;94.80;;;;;;5032804;28;20221;-86
2022/06/24 07:22:10;;;;;;;7.72;6.38;;;22.10;94.50;;;;;;5028323;28;20200;-88
2022/06/24 07:24:37;;;;;;;7.45;6.32;;;22.10;94.90;;;;;;5034650;28;20727;-87
2022/06/24 07:27:04;;;;;;;6.60;6.10;;;22.20;95.60;;;;;;5032934;28;20555;-87
2022/06/24 07:29:33;;;;;;;7.28;6.40;;;22.30;94.90;;;;;;5032025;28;20328;-86
2022/06/24 07:32:00;;;;;;;7.28;6.57;;;22.40;91.70;;;;;;5034654;28;20211;-87
2022/06/24 07:34:26;;;;;;;6.22;5.82;;;22.60;93.40;;;;;;5037297;28;20200;-87
2022/06/24 07:36:55;;;;;;;6.43;5.82;;;22.70;91.70;;;;;;5033102;28;20205;-86
2022/06/24 07:39:21;;;;;;;6.57;5.97;;;22.60;90.80;;;;;;5020769;28;20217;-87
2022/06/24 07:41:47;;;;;;;6.03;5.53;;;22.60;91.10;;;;;;5036307;28;20254;-87
2022/06/24 07:44:12;;;;;;;6.35;5.72;;;22.70;91.20;;;;;;5044035;28;20196;-85
2022/06/24 07:46:38;;;;;;;6.88;5.50;;;22.80;91.20;;;;;;5042003;28;20195;-85
2022/06/24 07:49:04;;;;;;;6.20;5.68;;;22.80;88.90;;;;;;5039415;28;20209;-84
2022/06/24 07:51:30;;;;;;;6.35;5.85;;;22.70;89.50;;;;;;5041278;28;20230;-84
2022/06/24 07:53:55;;;;;;;7.40;6.80;;;22.60;91.10;;;;;;5043108;28;20184;-85
2022/06/24 07:59:06;;;;;;;6.43;5.82;;;22.90;90.10;;;;;;5040466;28;20227;-85
2022/06/24 08:01:33;;;;;;;6.57;5.97;;;23.30;87.30;;;;;;5039329;28;20280;-85
2022/06/24 08:03:59;;;;;;;7.45;6.53;;;23.30;85.90;;;;;;5039684;28;20200;-85
2022/06/24 08:06:25;;;;;;;7.57;6.93;;;23.30;84.90;;;;;;5041638;28;20227;-85
2022/06/24 08:08:51;;;;;;;7.28;6.55;;;23.50;87.50;;;;;;5035105;28;20221;-85
2022/06/24 08:11:17;;;;;;;8.23;7.63;;;23.60;86.20;;;;;;5038834;28;20224;-85
2022/06/24 08:13:42;;;;;;;7.70;7.10;;;23.60;85.70;;;;;;5038720;28;20697;-85
2022/06/24 08:16:08;;;;;;;7.65;6.95;;;23.80;84.60;;;;;;5035736;28;20221;-85
2022/06/24 08:18:34;;;;;;;7.72;7.10;;;23.80;86.20;;;;;;5044308;28;20295;-85
2022/06/24 08:21:00;;;;;;;7.30;6.85;;;23.60;84.00;;;;;;5045937;28;20260;-85
2022/06/24 08:23:26;;;;;;;7.90;7.20;;;23.50;84.00;;;;;;5044860;28;20184;-85
2022/06/24 08:25:51;;;;;;;6.70;6.30;;;23.40;83.00;;;;;;5044841;28;20193;-85
2022/06/24 08:28:17;;;;;;;6.60;5.90;;;23.50;82.10;;;;;;5044315;28;20633;-85
2022/06/24 08:30:43;;;;;;;6.55;5.95;;;23.70;82.30;;;;;;5045650;28;20203;-85
2022/06/24 08:33:09;;;;;;;6.45;5.70;;;23.90;80.40;;;;;;5041198;28;20192;-85
2022/06/24 08:35:34;;;;;;;5.68;5.13;;;24.00;80.30;;;;;;5046101;28;20189;-85
2022/06/24 08:38:00;;;;;;;6.53;6.00;;;24.10;84.10;;;;;;5045070;28;20200;-85
2022/06/24 08:40:28;;;;;;;6.22;5.72;;;24.00;81.60;;;;;;5041314;28;20232;-85
2022/06/24 08:42:56;;;;;;;6.22;5.22;;;24.10;79.00;;;;;;5039852;28;20257;-85
2022/06/24 08:45:23;;;;;;;6.90;5.43;;;24.20;78.30;;;;;;5045753;28;20221;-85
2022/06/24 08:47:49;;;;;;;6.43;5.93;;;24.00;79.40;;;;;;5044802;28;20212;-85
2022/06/24 08:50:15;;;;;;;6.00;5.50;;;24.00;80.20;;;;;;5045893;28;20227;-85
2022/06/24 08:52:50;;;;;;;6.03;5.45;;;24.10;78.60;;;;;;5043073;28;20213;-85
2022/06/24 08:55:18;;;;;;;5.60;4.93;;;23.80;78.30;;;;;;5043791;28;20251;-85
2022/06/24 08:57:45;;;;;;;5.13;4.68;;;23.90;79.10;;;;;;5041997;28;20185;-85
2022/06/24 09:00:12;;;;;;;6.20;5.65;;;23.70;78.50;;;;;;5044743;28;20224;-85
2022/06/24 09:02:39;;;;;;;5.75;5.22;;;23.80;76.40;;;;;;5046232;28;20256;-85
2022/06/24 09:05:13;;;;;;;6.15;5.65;;;23.90;77.70;;;;;;5040682;28;20532;-84
2022/06/24 09:07:38;;;;;;;7.57;6.25;;;24.10;76.50;;;;;;5039798;28;20268;-85
2022/06/24 09:10:10;;;;;;;6.20;5.82;;;24.30;76.00;;;;;;5043704;28;20200;-85
2022/06/24 09:12:44;;;;;;;6.88;6.38;;;24.70;76.40;;;;;;5043661;28;20189;-85
2022/06/24 09:15:12;;;;;;;6.10;5.55;;;24.70;79.20;;;;;;5043995;28;20215;-85
2022/06/24 09:17:39;;;;;;;6.25;5.82;;;24.70;78.10;;;;;;5041957;28;20185;-85
2022/06/24 09:20:11;;;;;;;7.35;6.60;;;25.00;75.50;;;;;;5036340;28;20745;-85
2022/06/24 09:22:37;;;;;;;7.88;7.10;;;25.00;74.20;;;;;;5044156;28;20185;-84
2022/06/24 09:25:03;;;;;;;7.80;7.20;;;24.70;73.00;;;;;;5043702;28;20215;-85
2022/06/24 09:27:30;;;;;;;9.07;8.45;;;24.80;73.50;;;;;;5046117;28;20192;-85
2022/06/24 09:29:55;;;;;;;7.93;7.53;;;25.10;71.90;;;;;;5042710;28;20309;-85
2022/06/24 09:32:21;;;;;;;8.57;7.95;;;25.30;71.20;;;;;;5044132;28;20188;-85
2022/06/24 09:35:14;;;;;;;7.68;7.18;;;25.50;68.40;;;;;;5043479;28;20200;-85
2022/06/24 09:37:46;;;;;;;7.57;7.15;;;25.90;68.20;;;;;;5043686;28;20288;-86
2022/06/24 09:40:18;;;;;;;7.03;6.53;;;26.00;67.40;;;;;;5043206;28;20222;-86
2022/06/24 09:42:51;;;;;;;7.55;6.88;;;25.70;67.50;;;;;;5048121;28;20184;-85
2022/06/24 09:45:18;;;;;;;8.52;7.80;;;25.50;66.20;;;;;;5044864;28;20679;-85
2022/06/24 09:47:49;;;;;;;7.40;6.90;;;25.60;68.40;;;;;;5042538;28;20185;-85
2022/06/24 09:50:15;;;;;;;7.03;6.53;;;25.50;66.10;;;;;;5047507;28;20545;-85
2022/06/24 09:52:41;;;;;;;6.43;6.00;;;25.80;61.10;;;;;;5046728;28;20689;-86
2022/06/24 09:55:07;;;;;;;7.13;6.63;;;25.90;63.70;;;;;;5029418;28;20283;-85
2022/06/24 09:57:33;;;;;;;6.70;6.30;;;26.10;65.10;;;;;;5043854;28;20253;-85
2022/06/24 10:02:45;;;;;;;6.35;5.70;;;26.60;61.80;;;;;;5041867;28;20566;-85
2022/06/24 10:05:15;;;;;;;7.13;6.53;;;26.70;61.00;;;;;;5044442;28;20311;-86
2022/06/24 10:07:45;;;;;;;7.22;6.72;;;26.60;65.20;;;;;;5045302;28;20196;-85
2022/06/24 10:10:12;;;;;;;7.00;6.50;;;26.30;62.70;;;;;;5047180;28;20200;-83
2022/06/24 10:12:41;;;;;;;6.13;5.57;;;26.40;61.40;;;;;;5048120;28;20683;-83
2022/06/24 10:15:08;;;;;;;7.00;5.93;;;26.70;61.80;;;;;;5044264;28;20193;-83
2022/06/24 10:17:35;;;;;;;7.00;6.55;;;26.80;62.80;;;;;;5046608;28;20200;-82
2022/06/24 10:20:03;;;;;;;5.80;5.40;;;26.70;60.20;;;;;;5045826;28;20287;-82
2022/06/24 10:22:46;;;;;;;6.20;5.32;;;26.00;60.60;;;;;;5042322;28;20182;-83
2022/06/24 10:25:47;;;;;;;5.75;5.30;;;26.40;61.40;;;;;;5044882;28;20235;-83
2022/06/24 10:28:12;;;;;;;7.13;6.03;;;26.50;62.90;;;;;;5036333;28;20537;-83
2022/06/24 10:30:47;;;;;;;6.50;5.90;;;26.80;59.60;;;;;;5047074;28;20197;-83
2022/06/24 10:33:19;;;;;;;6.93;6.03;;;27.00;60.30;;;;;;5043231;28;20191;-83
2022/06/24 10:36:02;;;;;;;7.13;6.53;;;27.20;57.60;;;;;;5042602;28;20189;-83
2022/06/24 10:38:42;;;;;;;7.03;6.63;;;27.70;53.30;;;;;;5043468;28;20209;-83
2022/06/24 10:41:11;;;;;;;8.05;7.65;;;27.80;53.40;;;;;;5043521;28;20262;-83
2022/06/24 10:43:44;;;;;;;7.75;7.35;;;27.50;53.60;;;;;;5047269;28;20188;-83
2022/06/24 10:46:13;;;;;;;8.30;7.90;;;27.60;54.30;;;;;;5046898;28;20189;-83
2022/06/24 10:48:51;;;;;;;9.25;8.85;;;27.90;54.00;;;;;;5043098;28;20209;-83
2022/06/24 10:51:20;;;;;;;9.70;9.30;;;28.30;54.20;;;;;;5060821;28;20181;-85
2022/06/24 10:54:09;;;;;;;10.27;9.77;;;28.60;51.00;;;;;;5041114;28;20192;-83
2022/06/24 10:56:47;;;;;;;9.32;8.82;;;28.80;49.00;;;;;;5044833;28;20198;-83
2022/06/24 10:59:14;;;;;;;10.32;9.80;;;28.70;46.90;;;;;;5045320;28;20209;-84
2022/06/24 11:01:42;;;;;;;9.20;8.80;;;28.80;47.70;;;;;;5039834;28;20186;-84
2022/06/24 11:04:11;;;;;;;10.38;9.88;;;28.80;49.20;;;;;;5043062;28;20235;-83
2022/06/24 11:06:37;;;;;;;10.93;10.25;;;28.70;49.80;;;;;;5047501;28;20188;-84
2022/06/24 11:09:07;;;;;;;13.02;12.02;;;28.90;46.60;;;;;;5047186;28;20228;-84
2022/06/24 11:11:34;;;;;;;12.93;12.43;;;28.90;46.40;;;;;;5040627;28;20185;-84
2022/06/24 11:14:00;;;;;;;13.90;13.13;;;28.90;47.70;;;;;;5042714;28;20199;-84
2022/06/24 11:16:27;;;;;;;13.60;13.00;;;28.90;46.80;;;;;;5046424;28;20552;-84
2022/06/24 11:18:53;;;;;;;13.50;12.90;;;29.10;45.40;;;;;;5043131;28;20320;-84
2022/06/24 11:21:19;;;;;;;14.68;14.07;;;29.10;46.40;;;;;;5044592;28;20204;-83
2022/06/24 11:23:53;;;;;;;13.90;13.20;;;28.70;46.50;;;;;;5042585;28;20311;-84
2022/06/24 11:26:19;;;;;;;13.63;13.02;;;28.20;48.10;;;;;;5038820;28;20564;-85
2022/06/24 11:28:53;;;;;;;13.52;12.98;;;28.20;49.70;;;;;;5044094;28;20722;-84
2022/06/24 11:31:25;;;;;;;12.90;12.20;;;28.20;49.90;;;;;;5042379;28;20303;-84
2022/06/24 11:34:12;;;;;;;14.07;13.43;;;28.20;52.00;;;;;;5041567;28;20185;-84
2022/06/24 11:36:40;;;;;;;12.32;11.88;;;28.20;47.90;;;;;;5044860;28;20197;-84
2022/06/24 11:39:12;;;;;;;11.88;11.35;;;28.00;49.00;;;;;;5039514;28;20220;-85
2022/06/24 11:41:47;;;;;;;12.38;11.88;;;27.70;49.40;;;;;;5045185;28;20196;-84
2022/06/24 11:44:13;;;;;;;12.10;11.60;;;27.60;51.30;;;;;;5041411;28;20177;-84
2022/06/24 11:46:40;;;;;;;11.20;10.70;;;27.70;50.40;;;;;;5040375;28;20185;-84
2022/06/24 11:49:07;;;;;;;12.32;11.73;;;27.90;50.10;;;;;;5041344;28;20222;-85
2022/06/24 11:51:33;;;;;;;11.65;10.93;;;27.80;49.00;;;;;;5046080;28;20185;-84
2022/06/24 11:54:03;;;;;;;11.57;11.07;;;27.60;51.50;;;;;;5047057;28;20200;-84
2022/06/24 11:56:31;;;;;;;11.82;11.18;;;27.70;50.60;;;;;;5045642;28;20201;-84
2022/06/24 11:58:58;;;;;;;10.88;10.38;;;27.90;50.20;;;;;;5046159;28;20209;-84
2022/06/24 12:01:25;;;;;;;9.98;9.48;;;27.60;52.90;;;;;;5044865;28;20220;-84
2022/06/24 12:03:53;;;;;;;10.43;9.93;;;27.10;53.50;;;;;;5044964;28;20181;-84
2022/06/24 12:06:20;;;;;;;9.73;9.23;;;27.00;54.00;;;;;;5035473;28;20185;-83
2022/06/24 12:08:47;;;;;;;9.30;8.90;;;27.10;51.30;;;;;;5042107;28;20231;-82
2022/06/24 12:11:15;;;;;;;9.48;9.07;;;27.30;52.00;;;;;;5040930;28;20193;-83
2022/06/24 12:13:42;;;;;;;10.00;9.50;;;27.20;52.00;;;;;;5045590;28;20180;-84
2022/06/24 12:16:08;;;;;;;9.88;9.38;;;27.30;52.00;;;;;;5044865;28;20502;-84
2022/06/24 12:18:35;;;;;;;10.13;9.52;;;27.50;51.80;;;;;;5040388;28;20200;-83
2022/06/24 12:21:06;;;;;;;10.30;9.80;;;27.70;51.00;;;;;;5044148;28;20235;-83
2022/06/24 12:23:36;;;;;;;11.52;10.85;;;28.00;51.20;;;;;;5047362;28;20176;-83
2022/06/24 12:26:19;;;;;;;12.30;11.70;;;28.40;51.40;;;;;;5036953;28;20200;-83
2022/06/24 12:28:57;;;;;;;11.80;11.23;;;28.70;48.80;;;;;;5042572;28;20205;-83
2022/06/24 12:31:22;;;;;;;12.25;11.75;;;28.60;50.70;;;;;;5039995;28;20252;-83
2022/06/24 12:33:51;;;;;;;11.93;11.25;;;28.60;48.20;;;;;;5038182;28;20197;-83
2022/06/24 12:36:19;;;;;;;11.95;11.43;;;28.50;49.40;;;;;;5044266;28;20177;-83
2022/06/24 12:38:45;;;;;;;12.10;11.70;;;28.50;48.30;;;;;;5040427;28;20197;-84
2022/06/24 12:41:13;;;;;;;10.90;10.48;;;28.20;47.80;;;;;;5038150;28;20209;-83
2022/06/24 12:43:52;;;;;;;11.40;10.90;;;27.80;48.10;;;;;;5041604;28;20181;-84
2022/06/24 12:46:19;;;;;;;11.38;10.98;;;27.70;49.00;;;;;;5044669;28;20181;-84
2022/06/24 12:51:30;;;;;;;12.60;12.05;;;28.40;46.50;;;;;;5038747;28;20195;-84
2022/06/24 12:53:56;;;;;;;13.35;12.68;;;28.90;46.00;;;;;;5043730;28;20576;-84
2022/06/24 12:56:22;;;;;;;13.63;13.02;;;29.20;45.40;;;;;;5037478;28;20193;-84
2022/06/24 12:58:51;;;;;;;11.90;11.40;;;29.10;46.10;;;;;;5043791;28;20212;-84